Time;durP1;ratioP1;P1;durP2;ratioP2;P2;SDS_P1;SDS_P2;PMS_P1;PMS_P2;Temp;Humidity;BMP_temperature;BMP_pressure;BME280_temperature;BME280_humidity;BME280_pressure;Samples;Min_cycle;Max_cycle;Signal;HPM_P1;HPM_P2
2022/07/07 00:02:10;;;;;;;15.52;5.45;;;16.40;99.90;;;;;;4993754;28;20421;-79
2022/07/07 00:04:36;;;;;;;10.70;5.72;;;16.40;99.90;;;;;;4993991;28;20050;-78
2022/07/07 00:07:02;;;;;;;12.18;6.13;;;16.40;99.90;;;;;;4993681;28;20057;-77
2022/07/07 00:09:30;;;;;;;10.77;5.28;;;16.40;99.90;;;;;;4976156;28;20136;-79
2022/07/07 00:11:56;;;;;;;11.65;5.90;;;16.40;99.90;;;;;;4993911;28;20054;-77
2022/07/07 00:14:22;;;;;;;12.50;5.75;;;16.40;99.90;;;;;;4993624;28;20118;-78
2022/07/07 00:16:48;;;;;;;12.20;6.32;;;16.40;99.90;;;;;;4993431;28;20707;-77
2022/07/07 00:19:13;;;;;;;14.13;6.25;;;16.40;99.90;;;;;;4993981;28;20492;-75
2022/07/07 00:21:39;;;;;;;11.02;5.43;;;16.40;99.90;;;;;;4994053;28;20523;-77
2022/07/07 00:24:05;;;;;;;11.77;6.28;;;16.40;99.90;;;;;;4975780;28;20043;-78
2022/07/07 00:26:31;;;;;;;15.15;6.53;;;16.40;99.90;;;;;;4993584;28;20039;-77
2022/07/07 00:28:57;;;;;;;10.75;5.93;;;16.40;99.90;;;;;;4993315;28;20054;-79
2022/07/07 00:31:23;;;;;;;9.55;5.78;;;16.40;99.90;;;;;;4993618;28;20037;-78
2022/07/07 00:33:49;;;;;;;13.55;5.78;;;16.40;99.90;;;;;;4976180;28;20516;-76
2022/07/07 00:36:14;;;;;;;13.77;5.70;;;16.30;99.90;;;;;;4993476;28;20046;-77
2022/07/07 00:38:40;;;;;;;16.30;6.47;;;16.40;99.90;;;;;;4975767;28;20456;-75
2022/07/07 00:41:06;;;;;;;10.60;5.30;;;16.40;99.90;;;;;;4993640;28;20048;-77
2022/07/07 00:43:41;;;;;;;11.55;5.30;;;16.30;99.90;;;;;;4993237;28;20050;-76
2022/07/07 00:46:07;;;;;;;15.93;5.80;;;16.30;99.90;;;;;;4993304;28;20401;-76
2022/07/07 00:48:36;;;;;;;9.77;3.72;;;16.30;99.90;;;;;;4992734;28;20046;-76
2022/07/07 00:51:04;;;;;;;11.05;3.42;;;16.30;99.90;;;;;;4992918;28;20054;-76
2022/07/07 00:53:30;;;;;;;6.18;2.80;;;16.30;99.90;;;;;;4975094;28;20104;-77
2022/07/07 00:55:55;;;;;;;7.78;3.60;;;16.20;99.90;;;;;;4992779;28;20031;-75
2022/07/07 00:58:21;;;;;;;7.70;2.60;;;16.20;99.90;;;;;;4992728;28;20046;-78
2022/07/07 01:00:47;;;;;;;7.40;2.90;;;16.10;99.90;;;;;;4975556;28;20158;-78
2022/07/07 01:03:14;;;;;;;8.60;3.35;;;16.10;99.90;;;;;;4992816;28;20053;-76
2022/07/07 01:05:40;;;;;;;8.45;3.67;;;16.10;99.90;;;;;;4975283;28;20061;-77
2022/07/07 01:08:08;;;;;;;7.68;3.13;;;16.20;99.90;;;;;;4957707;28;20497;-76
2022/07/07 01:10:35;;;;;;;7.20;2.70;;;16.20;99.90;;;;;;4992297;28;20046;-75
2022/07/07 01:13:02;;;;;;;8.10;3.03;;;16.00;99.90;;;;;;4992794;28;20125;-76
2022/07/07 01:15:28;;;;;;;5.07;2.60;;;16.00;99.90;;;;;;4975200;28;20082;-77
2022/07/07 01:17:54;;;;;;;8.20;2.35;;;16.00;99.90;;;;;;4992605;28;20102;-79
2022/07/07 01:20:20;;;;;;;5.38;2.60;;;16.00;99.90;;;;;;4992152;28;20065;-77
2022/07/07 01:22:51;;;;;;;5.32;2.75;;;16.00;99.90;;;;;;4992461;28;20481;-78
2022/07/07 01:25:17;;;;;;;10.10;3.10;;;16.00;99.90;;;;;;4974632;28;20050;-75
2022/07/07 01:27:42;;;;;;;9.25;2.85;;;15.90;99.90;;;;;;4974800;28;20501;-79
2022/07/07 01:30:09;;;;;;;6.00;2.70;;;15.90;99.90;;;;;;4992126;28;20065;-75
2022/07/07 01:32:34;;;;;;;12.50;3.55;;;15.90;99.90;;;;;;4992015;28;20057;-75
2022/07/07 01:35:00;;;;;;;9.85;3.40;;;15.90;99.90;;;;;;4992158;28;20121;-76
2022/07/07 01:37:26;;;;;;;7.30;3.03;;;15.90;99.90;;;;;;4992462;28;20437;-75
2022/07/07 01:39:53;;;;;;;7.30;2.90;;;15.90;99.90;;;;;;4974419;28;20042;-74
2022/07/07 01:42:18;;;;;;;8.98;3.40;;;15.90;99.90;;;;;;4991907;28;20046;-78
2022/07/07 01:44:44;;;;;;;11.00;3.67;;;15.90;99.90;;;;;;4992326;28;20371;-77
2022/07/07 01:47:12;;;;;;;9.00;3.97;;;15.90;99.90;;;;;;4992099;28;20096;-76
2022/07/07 01:49:38;;;;;;;9.02;3.35;;;15.90;99.90;;;;;;4991856;28;20109;-75
2022/07/07 01:52:06;;;;;;;14.25;4.05;;;15.90;99.90;;;;;;4991658;28;20050;-75
2022/07/07 01:54:33;;;;;;;10.93;3.67;;;15.90;99.90;;;;;;4974563;28;20141;-73
2022/07/07 01:56:59;;;;;;;16.98;3.78;;;15.90;99.90;;;;;;4991487;28;20446;-75
2022/07/07 01:59:25;;;;;;;8.85;3.08;;;15.90;99.90;;;;;;4992146;28;20121;-75
2022/07/07 02:01:50;;;;;;;11.02;3.63;;;15.90;99.90;;;;;;4990580;28;20100;-74
2022/07/07 02:04:16;;;;;;;11.65;3.80;;;15.90;99.90;;;;;;4974302;28;20050;-73
2022/07/07 02:06:42;;;;;;;11.43;3.53;;;16.00;99.90;;;;;;4992127;28;20133;-75
2022/07/07 02:09:08;;;;;;;12.82;3.67;;;15.90;99.90;;;;;;4992242;28;20039;-75
2022/07/07 02:11:34;;;;;;;11.25;3.40;;;15.90;99.90;;;;;;4974014;28;20125;-72
2022/07/07 02:14:01;;;;;;;18.23;4.13;;;15.90;99.90;;;;;;4978966;28;20046;-75
2022/07/07 02:16:27;;;;;;;12.15;3.53;;;15.90;99.90;;;;;;4991236;28;20042;-75
2022/07/07 02:18:58;;;;;;;17.15;3.78;;;15.90;99.90;;;;;;4973389;28;20054;-76
2022/07/07 02:21:24;;;;;;;14.70;3.67;;;15.90;99.90;;;;;;4990834;28;20397;-76
2022/07/07 02:23:52;;;;;;;17.98;4.20;;;16.10;99.90;;;;;;4973566;28;20082;-76
2022/07/07 02:26:18;;;;;;;17.77;3.05;;;15.90;99.90;;;;;;4990360;28;20035;-75
2022/07/07 02:28:44;;;;;;;14.07;3.40;;;15.90;99.90;;;;;;4973547;28;20050;-75
2022/07/07 02:31:10;;;;;;;13.25;3.50;;;15.90;99.90;;;;;;4991260;28;20047;-76
2022/07/07 02:33:36;;;;;;;13.80;2.72;;;15.90;99.90;;;;;;4991058;28;20508;-76
2022/07/07 02:36:05;;;;;;;13.23;2.88;;;15.90;99.90;;;;;;4974065;28;20092;-76
2022/07/07 02:38:32;;;;;;;10.63;2.42;;;15.90;99.90;;;;;;4991565;28;20161;-76
2022/07/07 02:40:58;;;;;;;15.57;2.78;;;15.90;99.90;;;;;;4991281;28;20060;-77
2022/07/07 02:43:24;;;;;;;12.25;2.10;;;15.90;99.90;;;;;;4972470;28;20042;-77
2022/07/07 02:45:51;;;;;;;10.57;1.88;;;15.90;99.90;;;;;;4990805;28;20046;-77
2022/07/07 02:48:21;;;;;;;14.90;2.15;;;15.80;99.90;;;;;;4990937;28;20075;-77
2022/07/07 02:50:47;;;;;;;13.93;1.90;;;15.90;99.90;;;;;;4972371;28;20054;-77
2022/07/07 02:53:13;;;;;;;15.48;2.03;;;15.80;99.90;;;;;;4990886;28;20053;-76
2022/07/07 02:55:40;;;;;;;12.38;1.75;;;15.80;99.90;;;;;;4972874;28;20049;-75
2022/07/07 02:58:07;;;;;;;12.25;2.17;;;15.80;99.90;;;;;;4990406;28;20053;-77
2022/07/07 03:00:34;;;;;;;9.70;1.88;;;15.70;99.90;;;;;;4973166;28;20058;-75
2022/07/07 03:03:00;;;;;;;14.98;2.78;;;15.90;99.90;;;;;;4990344;28;20046;-76
2022/07/07 03:05:26;;;;;;;12.82;2.08;;;15.70;99.90;;;;;;4990669;28;20057;-76
2022/07/07 03:07:52;;;;;;;13.48;2.03;;;15.70;99.90;;;;;;4972840;28;20046;-76
2022/07/07 03:10:17;;;;;;;11.18;2.10;;;15.70;99.90;;;;;;4990809;28;20046;-75
2022/07/07 03:12:43;;;;;;;10.10;2.53;;;15.70;99.90;;;;;;4990208;28;20057;-76
2022/07/07 03:15:09;;;;;;;13.85;2.30;;;15.70;99.90;;;;;;4972880;28;20054;-75
2022/07/07 03:17:35;;;;;;;10.85;2.00;;;15.70;99.90;;;;;;4972127;28;20058;-76
2022/07/07 03:20:02;;;;;;;11.80;2.22;;;15.80;99.90;;;;;;4973092;28;20732;-76
2022/07/07 03:22:28;;;;;;;7.03;1.85;;;15.70;99.90;;;;;;4973137;28;20124;-75
2022/07/07 03:24:54;;;;;;;12.00;2.50;;;15.80;99.90;;;;;;4990595;28;20038;-76
2022/07/07 03:27:19;;;;;;;9.82;2.05;;;15.70;99.90;;;;;;4990126;28;20062;-81
2022/07/07 03:29:45;;;;;;;13.23;2.30;;;15.60;99.90;;;;;;4990145;28;20133;-78
2022/07/07 03:32:10;;;;;;;9.00;1.50;;;15.70;99.90;;;;;;4994551;28;20082;-77
2022/07/07 03:34:36;;;;;;;9.85;2.05;;;15.70;99.90;;;;;;4994088;28;20113;-77
2022/07/07 03:37:02;;;;;;;11.10;1.80;;;16.00;99.90;;;;;;4994501;28;20124;-80
2022/07/07 03:39:28;;;;;;;11.10;1.45;;;15.60;99.90;;;;;;4994242;28;20042;-80
2022/07/07 03:41:53;;;;;;;6.72;1.52;;;15.60;99.90;;;;;;4976791;28;20065;-79
2022/07/07 03:44:19;;;;;;;9.65;1.58;;;15.60;99.90;;;;;;4993271;28;20057;-77
2022/07/07 03:46:45;;;;;;;11.45;1.60;;;15.60;99.90;;;;;;4993898;28;20053;-76
2022/07/07 03:49:11;;;;;;;9.73;1.25;;;15.60;99.90;;;;;;4994384;28;20038;-81
2022/07/07 03:51:36;;;;;;;9.20;1.38;;;15.60;99.90;;;;;;4993649;28;20068;-81
2022/07/07 03:54:03;;;;;;;10.15;1.63;;;15.50;99.90;;;;;;4976534;28;20065;-76
2022/07/07 03:56:28;;;;;;;10.27;1.42;;;15.50;99.90;;;;;;4993959;28;20034;-78
2022/07/07 03:58:54;;;;;;;9.27;1.27;;;15.50;99.90;;;;;;4976237;28;20487;-76
2022/07/07 04:01:20;;;;;;;11.80;1.42;;;15.40;99.90;;;;;;4975543;28;20091;-78
2022/07/07 04:03:45;;;;;;;9.48;1.50;;;15.40;99.90;;;;;;4993964;28;20440;-78
2022/07/07 04:06:11;;;;;;;6.57;1.20;;;15.40;99.90;;;;;;4976077;28;20092;-80
2022/07/07 04:08:37;;;;;;;6.78;1.30;;;15.30;99.90;;;;;;4960282;28;20093;-79
2022/07/07 04:11:02;;;;;;;11.50;1.35;;;15.30;99.90;;;;;;4976261;28;20511;-77
2022/07/07 04:13:28;;;;;;;8.80;1.30;;;15.20;99.90;;;;;;4993033;28;20059;-77
2022/07/07 04:15:56;;;;;;;12.10;1.48;;;15.30;99.90;;;;;;4993245;28;20038;-76
2022/07/07 04:18:22;;;;;;;13.82;1.92;;;15.20;99.90;;;;;;4976210;28;20046;-78
2022/07/07 04:20:48;;;;;;;9.57;1.70;;;15.20;99.90;;;;;;4993604;28;20054;-80
2022/07/07 04:23:13;;;;;;;9.50;1.77;;;15.10;99.90;;;;;;4975861;28;20034;-77
2022/07/07 04:25:39;;;;;;;14.48;1.80;;;15.10;99.90;;;;;;4975904;28;20042;-79
2022/07/07 04:28:05;;;;;;;13.68;1.55;;;15.10;99.90;;;;;;4976021;28;20503;-76
2022/07/07 04:30:30;;;;;;;12.80;1.45;;;15.20;99.90;;;;;;4976128;28;20051;-78
2022/07/07 04:32:56;;;;;;;13.45;1.98;;;15.10;99.90;;;;;;4975582;28;20050;-78
2022/07/07 04:35:22;;;;;;;10.63;1.45;;;15.10;99.90;;;;;;4993520;28;20559;-78
2022/07/07 04:37:47;;;;;;;9.05;1.77;;;15.10;99.90;;;;;;4993156;28;20454;-79
2022/07/07 04:40:13;;;;;;;6.90;1.15;;;15.10;99.90;;;;;;4993566;28;20413;-76
2022/07/07 04:42:39;;;;;;;9.00;1.50;;;15.10;99.90;;;;;;4975429;28;20401;-75
2022/07/07 04:45:05;;;;;;;8.23;1.40;;;15.10;99.90;;;;;;4993160;28;20512;-80
2022/07/07 04:47:30;;;;;;;16.95;1.83;;;15.10;99.90;;;;;;4992579;28;20132;-80
2022/07/07 04:49:56;;;;;;;8.45;1.30;;;15.10;99.90;;;;;;4975755;28;20126;-78
2022/07/07 04:52:22;;;;;;;10.23;1.65;;;15.10;99.90;;;;;;4993071;28;20050;-78
2022/07/07 04:54:47;;;;;;;8.13;1.40;;;15.40;99.90;;;;;;4975046;28;20444;-77
2022/07/07 04:57:13;;;;;;;9.38;1.70;;;15.10;99.90;;;;;;4976106;28;20054;-77
2022/07/07 04:59:40;;;;;;;5.80;1.13;;;15.10;99.90;;;;;;4993261;28;20030;-74
2022/07/07 05:02:06;;;;;;;7.97;1.30;;;15.10;99.90;;;;;;4975416;28;20295;-79
2022/07/07 05:04:32;;;;;;;10.18;1.50;;;15.10;99.90;;;;;;4975748;28;20050;-78
2022/07/07 05:06:58;;;;;;;13.20;1.52;;;15.10;99.90;;;;;;4992987;28;20050;-79
2022/07/07 05:09:23;;;;;;;8.85;1.45;;;15.10;99.90;;;;;;4975471;28;20046;-76
2022/07/07 05:11:49;;;;;;;15.00;2.03;;;15.10;99.90;;;;;;4992560;28;20046;-79
2022/07/07 05:14:14;;;;;;;11.27;1.67;;;15.10;99.90;;;;;;4992121;28;20561;-79
2022/07/07 05:16:40;;;;;;;10.95;1.85;;;15.00;99.90;;;;;;4975714;28;20375;-78
2022/07/07 05:19:09;;;;;;;9.80;1.65;;;14.90;99.90;;;;;;4992241;28;20149;-79
2022/07/07 05:21:34;;;;;;;11.82;1.88;;;14.90;99.90;;;;;;4975240;28;20093;-80
2022/07/07 05:24:00;;;;;;;10.18;1.70;;;14.90;99.90;;;;;;4992434;28;20445;-77
2022/07/07 05:26:26;;;;;;;9.68;1.67;;;14.90;99.90;;;;;;4992134;28;20078;-79
2022/07/07 05:28:51;;;;;;;12.23;1.92;;;15.00;99.90;;;;;;4975007;28;20081;-79
2022/07/07 05:31:17;;;;;;;10.88;1.92;;;14.90;99.90;;;;;;4992388;28;20771;-76
2022/07/07 05:33:42;;;;;;;8.70;2.13;;;14.90;99.90;;;;;;4992352;28;20054;-78
2022/07/07 05:36:08;;;;;;;12.77;1.95;;;14.90;99.90;;;;;;4992239;28;20054;-78
2022/07/07 05:38:34;;;;;;;6.78;1.80;;;15.00;99.90;;;;;;4992161;28;20482;-77
2022/07/07 05:41:01;;;;;;;16.98;1.80;;;15.00;99.90;;;;;;4992506;28;20117;-77
2022/07/07 05:43:27;;;;;;;13.60;1.60;;;15.00;99.90;;;;;;4974466;28;20046;-78
2022/07/07 05:45:53;;;;;;;8.75;1.88;;;15.10;99.90;;;;;;4991910;28;20046;-76
2022/07/07 05:48:19;;;;;;;8.90;1.75;;;15.00;99.90;;;;;;4992171;28;20134;-81
2022/07/07 05:50:45;;;;;;;11.32;1.52;;;15.10;99.90;;;;;;4991714;28;20134;-79
2022/07/07 05:53:11;;;;;;;14.25;1.83;;;15.10;99.90;;;;;;4973915;28;20058;-77
2022/07/07 05:55:36;;;;;;;8.85;1.85;;;15.10;99.90;;;;;;4992250;28;20097;-78
2022/07/07 05:58:03;;;;;;;7.55;1.48;;;15.10;99.90;;;;;;4991995;28;20054;-76
2022/07/07 06:00:29;;;;;;;9.25;1.75;;;15.10;99.90;;;;;;4991853;28;20551;-77
2022/07/07 06:02:55;;;;;;;11.55;1.40;;;15.10;99.90;;;;;;4991901;28;20054;-77
2022/07/07 06:05:21;;;;;;;13.93;1.50;;;15.30;99.90;;;;;;4991751;28;20050;-77
2022/07/07 06:07:47;;;;;;;8.30;1.48;;;15.30;99.90;;;;;;4991648;28;20039;-79
2022/07/07 06:10:15;;;;;;;11.75;1.30;;;15.40;99.90;;;;;;4992216;28;20497;-77
2022/07/07 06:12:42;;;;;;;10.82;1.20;;;15.50;99.90;;;;;;4992101;28;20512;-77
2022/07/07 06:15:08;;;;;;;13.50;1.45;;;15.30;99.90;;;;;;4992124;28;20149;-77
2022/07/07 06:17:34;;;;;;;6.50;2.08;;;15.40;99.90;;;;;;4991132;28;20046;-76
2022/07/07 06:20:00;;;;;;;6.50;1.00;;;15.30;99.90;;;;;;4973813;28;20058;-78
2022/07/07 06:22:26;;;;;;;6.88;0.77;;;15.30;99.90;;;;;;4991755;28;20057;-78
2022/07/07 06:24:52;;;;;;;9.43;1.23;;;15.20;99.90;;;;;;4974423;28;20042;-76
2022/07/07 06:27:18;;;;;;;2.78;0.80;;;15.30;99.90;;;;;;4991575;28;20046;-77
2022/07/07 06:29:44;;;;;;;4.60;0.75;;;15.10;99.90;;;;;;4991097;28;20045;-77
2022/07/07 06:32:10;;;;;;;4.57;0.73;;;15.10;99.90;;;;;;4974315;28;20062;-76
2022/07/07 06:34:36;;;;;;;4.70;0.90;;;15.10;99.90;;;;;;4991198;28;20462;-77
2022/07/07 06:37:02;;;;;;;7.72;0.85;;;15.20;99.90;;;;;;4991181;28;20050;-76
2022/07/07 06:39:28;;;;;;;6.57;0.95;;;15.30;99.90;;;;;;4990424;28;20042;-78
2022/07/07 06:41:54;;;;;;;7.10;0.88;;;15.50;99.90;;;;;;4991423;28;20090;-79
2022/07/07 06:44:19;;;;;;;8.10;1.23;;;15.80;99.90;;;;;;4991109;28;20035;-79
2022/07/07 06:46:45;;;;;;;5.10;0.90;;;16.40;99.90;;;;;;4991050;28;20038;-78
2022/07/07 06:49:12;;;;;;;5.47;0.70;;;16.20;99.90;;;;;;4973716;28;20061;-78
2022/07/07 06:51:38;;;;;;;7.93;1.00;;;16.10;99.90;;;;;;4990849;28;20129;-79
2022/07/07 06:54:04;;;;;;;5.25;0.88;;;16.10;99.90;;;;;;4990698;28;20253;-76
2022/07/07 06:56:29;;;;;;;7.28;0.77;;;16.10;99.90;;;;;;4973780;28;20046;-79
2022/07/07 06:58:55;;;;;;;6.13;0.90;;;16.20;99.90;;;;;;4991285;28;20053;-76
2022/07/07 07:01:21;;;;;;;10.30;1.20;;;16.20;99.90;;;;;;4990506;28;20045;-80
2022/07/07 07:03:46;;;;;;;11.07;1.15;;;16.30;99.90;;;;;;4990925;28;20775;-78
2022/07/07 07:06:12;;;;;;;4.72;1.00;;;16.40;99.90;;;;;;4990347;28;20054;-76
2022/07/07 07:08:37;;;;;;;6.50;1.10;;;16.50;99.90;;;;;;4990783;28;20421;-77
2022/07/07 07:11:04;;;;;;;6.05;0.95;;;16.50;99.90;;;;;;4990557;28;20054;-75
2022/07/07 07:13:30;;;;;;;2.83;0.50;;;16.40;99.90;;;;;;4990985;28;20465;-79
2022/07/07 07:15:56;;;;;;;10.30;1.40;;;16.50;99.90;;;;;;4990624;28;20054;-77
2022/07/07 07:18:22;;;;;;;7.43;0.82;;;16.50;99.90;;;;;;4990722;28;20071;-75
2022/07/07 07:20:47;;;;;;;5.03;0.77;;;16.50;99.90;;;;;;4990508;28;20555;-79
2022/07/07 07:23:16;;;;;;;8.13;1.00;;;16.50;99.90;;;;;;4991229;28;20048;-76
2022/07/07 07:25:42;;;;;;;7.78;1.58;;;16.70;99.90;;;;;;4990186;28;20475;-79
2022/07/07 07:28:10;;;;;;;7.32;0.93;;;16.60;99.90;;;;;;4973299;28;20062;-77
2022/07/07 07:30:35;;;;;;;6.28;1.15;;;16.50;99.90;;;;;;4990493;28;20101;-80
2022/07/07 07:33:01;;;;;;;5.68;1.02;;;16.40;99.90;;;;;;4989950;28;20050;-80
2022/07/07 07:35:27;;;;;;;7.03;1.02;;;16.40;99.90;;;;;;4990479;28;20371;-80
2022/07/07 07:37:52;;;;;;;3.65;0.75;;;16.40;99.90;;;;;;4989894;28;20153;-78
2022/07/07 07:40:21;;;;;;;3.78;0.70;;;16.60;99.90;;;;;;4990604;28;20050;-79
2022/07/07 07:42:47;;;;;;;9.15;1.50;;;16.40;99.90;;;;;;4990170;28;20051;-79
2022/07/07 07:45:13;;;;;;;10.38;1.80;;;16.40;99.90;;;;;;4990407;28;20058;-77
2022/07/07 07:47:44;;;;;;;6.00;0.80;;;16.40;99.90;;;;;;4990697;28;20050;-77
2022/07/07 07:50:13;;;;;;;8.77;1.20;;;16.40;99.90;;;;;;4990141;28;20093;-75
2022/07/07 07:52:40;;;;;;;7.93;1.20;;;16.30;99.90;;;;;;4990451;28;20082;-78
2022/07/07 07:55:07;;;;;;;8.05;1.23;;;16.40;99.90;;;;;;4989859;28;20038;-77
2022/07/07 07:57:33;;;;;;;7.30;1.25;;;16.60;99.90;;;;;;4990440;28;20093;-78
2022/07/07 07:59:59;;;;;;;10.00;1.13;;;16.80;99.90;;;;;;4972019;28;20593;-80
2022/07/07 08:02:25;;;;;;;7.53;0.93;;;16.80;99.90;;;;;;4989728;28;20054;-76
2022/07/07 08:04:51;;;;;;;5.05;1.15;;;16.90;99.90;;;;;;4972928;28;20052;-77
2022/07/07 08:07:17;;;;;;;3.67;0.52;;;16.90;99.90;;;;;;5005369;28;20050;-73
2022/07/07 08:09:44;;;;;;;5.22;0.68;;;16.80;99.90;;;;;;4989603;28;20124;-74
2022/07/07 08:12:10;;;;;;;5.25;1.75;;;16.80;99.90;;;;;;4990299;28;20049;-76
2022/07/07 08:14:36;;;;;;;9.50;1.02;;;16.90;99.90;;;;;;4972610;28;20470;-75
2022/07/07 08:17:01;;;;;;;7.22;0.95;;;17.10;99.90;;;;;;4992313;28;20053;-76
2022/07/07 08:19:27;;;;;;;5.13;0.88;;;17.40;99.90;;;;;;4993933;28;20049;-78
2022/07/07 08:21:53;;;;;;;9.93;1.92;;;17.50;99.90;;;;;;4993149;28;20053;-79
2022/07/07 08:24:19;;;;;;;8.98;1.23;;;17.50;99.90;;;;;;4993548;28;20042;-79
2022/07/07 08:26:45;;;;;;;9.70;1.95;;;17.30;99.90;;;;;;4992612;28;20713;-79
2022/07/07 08:29:11;;;;;;;9.52;1.20;;;17.30;99.90;;;;;;4993653;28;20061;-77
2022/07/07 08:31:37;;;;;;;8.38;1.55;;;17.30;99.90;;;;;;4993391;28;20509;-79
2022/07/07 08:34:03;;;;;;;13.90;1.92;;;17.50;99.90;;;;;;4993208;28;20042;-77
2022/07/07 08:36:30;;;;;;;7.80;1.35;;;17.40;99.90;;;;;;4993420;28;20445;-80
2022/07/07 08:38:56;;;;;;;5.15;1.10;;;17.30;99.90;;;;;;4993319;28;20050;-78
2022/07/07 08:41:23;;;;;;;7.70;1.63;;;17.50;99.90;;;;;;4992765;28;20050;-79
2022/07/07 08:43:49;;;;;;;6.50;1.50;;;17.60;99.90;;;;;;4992783;28;20089;-77
2022/07/07 08:46:16;;;;;;;9.80;1.42;;;17.50;99.90;;;;;;4993455;28;20090;-78
2022/07/07 08:48:41;;;;;;;8.18;1.52;;;17.50;99.90;;;;;;4993165;28;20061;-78
2022/07/07 08:51:08;;;;;;;10.23;2.28;;;17.50;99.90;;;;;;4992540;28;20058;-79
2022/07/07 08:53:36;;;;;;;7.72;1.48;;;17.60;99.90;;;;;;4975362;28;20054;-77
2022/07/07 08:56:07;;;;;;;8.43;1.73;;;17.90;99.90;;;;;;4975134;28;20049;-77
2022/07/07 08:58:35;;;;;;;13.18;1.73;;;18.10;99.90;;;;;;4992507;28;20054;-82
2022/07/07 09:01:02;;;;;;;7.53;1.33;;;17.90;99.90;;;;;;4992731;28;20112;-77
2022/07/07 09:03:28;;;;;;;12.02;2.10;;;17.90;99.90;;;;;;4992914;28;20058;-77
2022/07/07 09:05:56;;;;;;;8.73;1.48;;;17.70;99.90;;;;;;4991490;28;20038;-79
2022/07/07 09:08:24;;;;;;;7.50;1.40;;;17.50;99.90;;;;;;4975168;28;20058;-77
2022/07/07 09:10:50;;;;;;;6.72;1.45;;;17.40;99.90;;;;;;4992683;28;20074;-84
2022/07/07 09:13:28;;;;;;;9.05;1.58;;;17.40;99.90;;;;;;4992727;28;20483;-78
2022/07/07 09:16:04;;;;;;;6.13;1.20;;;17.80;99.90;;;;;;4991584;28;20042;-77
2022/07/07 09:18:38;;;;;;;7.43;1.52;;;17.70;99.90;;;;;;4992624;28;20540;-76
2022/07/07 09:21:07;;;;;;;11.50;1.65;;;18.00;99.90;;;;;;4992594;28;20054;-79
2022/07/07 09:23:33;;;;;;;11.35;1.45;;;18.10;99.90;;;;;;4992277;28;20086;-79
2022/07/07 09:26:01;;;;;;;13.30;1.63;;;18.00;99.90;;;;;;4992197;28;20057;-79
2022/07/07 09:28:27;;;;;;;10.75;1.58;;;17.70;99.90;;;;;;4991264;28;20050;-78
2022/07/07 09:30:54;;;;;;;7.90;1.73;;;17.80;99.90;;;;;;4992523;28;20187;-79
2022/07/07 09:33:25;;;;;;;8.10;1.42;;;17.90;99.90;;;;;;4992446;28;20038;-78
2022/07/07 09:38:39;;;;;;;8.57;1.10;;;17.90;99.90;;;;;;4992441;28;20421;-78
2022/07/07 09:41:10;;;;;;;5.32;1.00;;;17.70;99.90;;;;;;4992345;28;20042;-77
2022/07/07 09:43:43;;;;;;;8.13;0.90;;;17.60;99.90;;;;;;4991828;28;20052;-80
2022/07/07 09:46:19;;;;;;;5.05;1.00;;;17.40;99.90;;;;;;4992002;28;20607;-77
2022/07/07 09:48:49;;;;;;;7.20;1.27;;;17.40;99.90;;;;;;4991925;28;20053;-80
2022/07/07 09:51:17;;;;;;;11.27;1.30;;;17.50;99.90;;;;;;4991872;28;20065;-82
2022/07/07 09:53:58;;;;;;;10.50;1.27;;;17.70;99.90;;;;;;4974543;28;20050;-76
2022/07/07 09:56:33;;;;;;;6.90;1.13;;;17.70;99.90;;;;;;4991529;28;20046;-77
2022/07/07 09:59:00;;;;;;;7.93;1.38;;;17.60;99.90;;;;;;4991139;28;20125;-80
2022/07/07 10:01:29;;;;;;;7.50;1.45;;;17.50;99.90;;;;;;4991830;28;20054;-82
2022/07/07 10:04:04;;;;;;;10.25;1.40;;;17.50;99.90;;;;;;4991984;28;20394;-78
2022/07/07 10:06:31;;;;;;;10.80;1.45;;;17.30;99.90;;;;;;4992019;28;20061;-81
2022/07/07 10:09:06;;;;;;;7.28;1.65;;;17.20;99.90;;;;;;4990574;28;20050;-79
2022/07/07 10:11:39;;;;;;;8.00;1.52;;;17.10;99.90;;;;;;4973888;28;20490;-75
2022/07/07 10:14:27;;;;;;;11.05;1.65;;;17.10;99.90;;;;;;4990579;28;20370;-82
2022/07/07 10:16:54;;;;;;;10.63;1.50;;;17.00;99.90;;;;;;4974015;28;20093;-78
2022/07/07 10:19:23;;;;;;;8.32;1.63;;;17.50;99.90;;;;;;4991278;28;20793;-80
2022/07/07 10:21:51;;;;;;;12.88;1.88;;;16.90;99.90;;;;;;4991674;28;20039;-79
2022/07/07 10:24:20;;;;;;;9.10;1.50;;;16.90;99.90;;;;;;4991717;28;20078;-77
2022/07/07 10:26:51;;;;;;;10.00;1.50;;;16.90;99.90;;;;;;4991357;28;20580;-78
2022/07/07 10:29:35;;;;;;;5.55;1.08;;;16.70;99.90;;;;;;4991025;28;20038;-81
2022/07/07 10:32:00;;;;;;;11.32;1.50;;;16.80;99.90;;;;;;4991328;28;20046;-80
2022/07/07 10:34:28;;;;;;;9.43;1.60;;;16.60;99.90;;;;;;4991153;28;20039;-77
2022/07/07 10:37:09;;;;;;;15.60;2.00;;;16.50;99.90;;;;;;4990967;28;20042;-79
2022/07/07 10:39:43;;;;;;;9.95;1.90;;;16.60;99.90;;;;;;4973230;28;20054;-78
2022/07/07 10:42:15;;;;;;;10.40;1.77;;;16.70;99.90;;;;;;4971715;28;20383;-78
2022/07/07 10:44:46;;;;;;;8.50;1.50;;;16.90;99.90;;;;;;4971363;28;20061;-81
2022/07/07 10:47:11;;;;;;;11.00;1.80;;;17.00;99.90;;;;;;4971313;28;20101;-81
2022/07/07 10:49:49;;;;;;;12.98;1.52;;;17.20;99.90;;;;;;4971201;28;20050;-83
2022/07/07 10:52:21;;;;;;;13.80;1.80;;;17.10;99.90;;;;;;4989798;28;20141;-82
2022/07/07 10:55:03;;;;;;;9.18;1.50;;;17.10;99.90;;;;;;4991070;28;20071;-81
2022/07/07 10:57:46;;;;;;;10.15;1.80;;;17.20;99.90;;;;;;4990904;28;20066;-82
2022/07/07 11:00:26;;;;;;;18.60;2.80;;;17.20;99.90;;;;;;4990271;28;20042;-81
2022/07/07 11:03:09;;;;;;;13.32;1.90;;;17.10;99.90;;;;;;4990501;28;20056;-79
2022/07/07 11:05:36;;;;;;;17.40;2.38;;;16.70;99.90;;;;;;4990551;28;20152;-82
2022/07/07 11:08:06;;;;;;;22.50;3.10;;;16.90;99.90;;;;;;4989611;28;20050;-80
2022/07/07 11:10:49;;;;;;;22.50;3.78;;;16.90;99.90;;;;;;4978031;28;20053;-80
2022/07/07 11:13:22;;;;;;;20.33;2.90;;;17.00;99.90;;;;;;4973286;28;20042;-84
2022/07/07 11:16:23;;;;;;;22.10;3.28;;;17.00;99.90;;;;;;4990386;28;20121;-78
2022/07/07 11:18:57;;;;;;;22.10;2.60;;;17.00;99.90;;;;;;4990643;28;20533;-78
2022/07/07 11:21:38;;;;;;;21.02;2.72;;;17.00;99.90;;;;;;4990039;28;20050;-81
2022/07/07 11:24:15;;;;;;;19.23;2.47;;;17.00;99.90;;;;;;4993014;28;20054;-83
2022/07/07 11:26:41;;;;;;;15.98;2.22;;;17.00;99.90;;;;;;4990346;28;20125;-80
2022/07/07 11:29:10;;;;;;;20.88;2.58;;;17.00;99.90;;;;;;4990407;28;20142;-81
2022/07/07 11:31:35;;;;;;;14.80;2.15;;;17.10;99.90;;;;;;4989970;28;20042;-81
2022/07/07 11:34:01;;;;;;;14.63;2.00;;;17.10;99.90;;;;;;4990729;28;20551;-80
2022/07/07 11:36:28;;;;;;;18.63;2.22;;;17.20;99.90;;;;;;4990201;28;20049;-81
2022/07/07 11:39:03;;;;;;;9.73;2.22;;;17.20;99.90;;;;;;4990510;28;20138;-84
2022/07/07 11:41:40;;;;;;;10.82;1.83;;;17.10;99.90;;;;;;4990402;28;20082;-82
2022/07/07 11:44:06;;;;;;;19.52;2.53;;;17.40;99.90;;;;;;4990164;28;20449;-80
2022/07/07 11:46:32;;;;;;;17.77;2.42;;;17.30;99.90;;;;;;4989562;28;20046;-82
2022/07/07 11:48:57;;;;;;;18.02;2.38;;;17.30;99.90;;;;;;4972425;28;20814;-78
2022/07/07 11:51:29;;;;;;;12.07;2.53;;;17.30;99.90;;;;;;4991319;28;20528;-76
2022/07/07 11:53:59;;;;;;;14.02;2.08;;;17.30;99.90;;;;;;4993801;28;20050;-79
2022/07/07 11:56:31;;;;;;;12.75;2.03;;;17.20;99.90;;;;;;4993128;28;20493;-84
2022/07/07 11:58:59;;;;;;;14.75;1.98;;;17.20;99.90;;;;;;4994038;28;20457;-81
2022/07/07 12:01:36;;;;;;;16.95;3.05;;;17.10;99.90;;;;;;4994306;28;20046;-80
2022/07/07 12:04:14;;;;;;;15.40;2.42;;;17.00;99.90;;;;;;4993867;28;20050;-82
2022/07/07 12:06:41;;;;;;;16.20;2.75;;;17.10;99.90;;;;;;4993347;28;20043;-80
2022/07/07 12:09:07;;;;;;;12.80;2.05;;;17.30;99.90;;;;;;4993774;28;20046;-82
2022/07/07 12:11:39;;;;;;;11.85;2.13;;;17.50;99.90;;;;;;4994122;28;20706;-79
2022/07/07 12:14:07;;;;;;;12.73;2.53;;;17.60;99.90;;;;;;4990908;28;20038;-79
2022/07/07 12:16:45;;;;;;;15.18;2.15;;;17.70;99.90;;;;;;4974580;28;20109;-80
2022/07/07 12:19:11;;;;;;;12.82;2.60;;;17.50;99.90;;;;;;4974152;28;20123;-82
2022/07/07 12:21:45;;;;;;;14.18;2.70;;;17.50;99.90;;;;;;4974263;28;20174;-79
2022/07/07 12:24:15;;;;;;;14.13;2.00;;;17.40;99.90;;;;;;4982932;28;20486;-80
2022/07/07 12:26:48;;;;;;;12.68;2.40;;;17.40;99.90;;;;;;4993745;28;20097;-80
2022/07/07 12:29:16;;;;;;;19.35;2.70;;;17.30;99.90;;;;;;4993687;28;20062;-79
2022/07/07 12:31:42;;;;;;;16.25;3.28;;;17.50;99.90;;;;;;4993624;28;20085;-81
2022/07/07 12:34:15;;;;;;;20.67;3.65;;;17.40;99.90;;;;;;4993179;28;20046;-80
2022/07/07 12:36:43;;;;;;;11.85;2.00;;;17.40;99.90;;;;;;4993341;28;20050;-77
2022/07/07 12:39:09;;;;;;;12.63;2.25;;;17.50;99.90;;;;;;4993071;28;20092;-80
2022/07/07 12:41:37;;;;;;;11.90;2.30;;;17.60;99.90;;;;;;4993425;28;20398;-78
2022/07/07 12:44:21;;;;;;;21.98;2.20;;;17.80;99.90;;;;;;4993395;28;20137;-80
2022/07/07 12:46:47;;;;;;;12.18;1.88;;;17.90;99.90;;;;;;4993182;28;20050;-80